createdAt,value
2023-03-12T00:02:24.067Z,71.30
2023-03-12T00:04:52.136Z,71.20
2023-03-12T00:07:20.200Z,71.20
2023-03-12T00:09:49.566Z,71.20
2023-03-12T00:12:17.626Z,71.20
2023-03-12T00:14:45.623Z,71.10
2023-03-12T00:17:13.673Z,71.20
2023-03-12T00:19:41.720Z,71.20
2023-03-12T00:22:09.725Z,71.00
2023-03-12T00:24:37.746Z,71.00
2023-03-12T00:27:08.030Z,71.00
2023-03-12T00:29:36.624Z,70.90
2023-03-12T00:32:04.663Z,70.90
2023-03-12T00:34:32.700Z,70.90
2023-03-12T00:37:00.724Z,70.80
2023-03-12T00:39:28.724Z,70.80
2023-03-12T00:41:56.774Z,70.80
2023-03-12T00:44:26.229Z,70.70
2023-03-12T00:46:54.339Z,70.70
2023-03-12T00:49:22.392Z,70.70
2023-03-12T00:51:50.416Z,70.70
2023-03-12T00:54:18.451Z,70.70
2023-03-12T00:56:46.879Z,70.60
2023-03-12T00:59:14.922Z,70.50
2023-03-12T01:01:44.418Z,70.50
2023-03-12T01:04:12.483Z,70.60
2023-03-12T01:06:40.550Z,70.50
2023-03-12T01:09:09.595Z,70.50
2023-03-12T01:11:37.856Z,70.40
2023-03-12T01:14:06.178Z,70.30
2023-03-12T01:16:34.298Z,70.30
2023-03-12T01:19:04.367Z,70.30
2023-03-12T01:21:32.487Z,70.30
2023-03-12T01:24:00.558Z,70.20
2023-03-12T01:26:28.687Z,70.20
2023-03-12T01:28:56.778Z,70.40
2023-03-12T01:31:24.829Z,70.30
2023-03-12T01:33:56.612Z,70.10
2023-03-12T01:36:26.807Z,70.10
2023-03-12T01:38:55.366Z,70.10
2023-03-12T01:41:23.544Z,70.00
2023-03-12T01:43:51.672Z,70.00
2023-03-12T01:46:30.576Z,70.00
2023-03-12T01:49:05.352Z,69.90
2023-03-12T01:51:36.348Z,69.80
2023-03-12T01:54:07.061Z,70.10
2023-03-12T01:56:35.545Z,69.90
2023-03-12T01:59:05.255Z,69.70
2023-03-12T02:01:33.392Z,69.70
2023-03-12T02:04:01.567Z,69.60
2023-03-12T02:06:32.341Z,69.70
2023-03-12T02:09:01.929Z,69.70
2023-03-12T02:11:29.978Z,69.60
2023-03-12T02:13:58.032Z,69.50
2023-03-12T02:16:27.078Z,69.60
2023-03-12T02:18:55.117Z,69.50
2023-03-12T02:21:24.407Z,69.60
2023-03-12T02:23:56.673Z,69.50
2023-03-12T02:26:26.506Z,69.50
2023-03-12T02:28:54.563Z,69.40
2023-03-12T02:31:23.943Z,69.50
2023-03-12T02:33:53.024Z,69.50
2023-03-12T02:36:21.193Z,69.40
2023-03-12T02:38:49.694Z,69.60
2023-03-12T02:41:19.556Z,69.40
2023-03-12T02:43:50.318Z,69.40
2023-03-12T02:46:18.522Z,69.20
2023-03-12T02:48:46.586Z,69.30
2023-03-12T02:51:14.614Z,69.30
2023-03-12T02:53:42.655Z,69.20
2023-03-12T02:56:10.704Z,69.30
2023-03-12T02:58:38.724Z,69.20
2023-03-12T03:01:08.126Z,69.20
2023-03-12T03:03:36.133Z,69.20
2023-03-12T03:06:08.691Z,69.10
2023-03-12T03:08:36.723Z,69.20
2023-03-12T03:11:04.976Z,69.30
2023-03-12T03:13:33.011Z,69.20
2023-03-12T03:16:02.091Z,69.10
2023-03-12T03:18:31.940Z,69.10
2023-03-12T03:21:00.774Z,68.90
2023-03-12T03:23:28.780Z,68.80
2023-03-12T03:25:56.834Z,68.80
2023-03-12T03:28:25.619Z,69.10
2023-03-12T03:30:54.137Z,69.10
2023-03-12T03:33:22.209Z,68.80
2023-03-12T03:35:52.052Z,68.60
2023-03-12T03:38:20.071Z,68.70
2023-03-12T03:40:48.203Z,68.80
2023-03-12T03:43:16.256Z,68.70
2023-03-12T03:45:45.202Z,68.70
2023-03-12T03:48:13.339Z,68.60
2023-03-12T03:50:41.463Z,68.60
2023-03-12T03:53:10.894Z,68.70
2023-03-12T03:55:39.309Z,68.70
2023-03-12T03:58:07.481Z,68.70
2023-03-12T04:00:35.585Z,68.60
2023-03-12T04:03:03.694Z,68.60
2023-03-12T04:05:31.941Z,68.70
2023-03-12T04:08:03.154Z,68.60
2023-03-12T04:10:32.585Z,68.50
2023-03-12T04:13:00.627Z,68.50
2023-03-12T04:15:28.728Z,68.50
2023-03-12T04:17:56.786Z,68.60
2023-03-12T04:20:25.129Z,68.40
2023-03-12T04:22:53.157Z,68.70
2023-03-12T04:25:26.699Z,68.50
2023-03-12T04:27:56.128Z,68.30
2023-03-12T04:30:24.168Z,68.30
2023-03-12T04:32:52.757Z,68.30
2023-03-12T04:35:20.893Z,68.20
2023-03-12T04:37:48.955Z,68.20
2023-03-12T04:40:20.828Z,68.30
2023-03-12T04:42:48.896Z,68.30
2023-03-12T04:45:22.235Z,68.30
2023-03-12T04:47:50.254Z,68.20
2023-03-12T04:50:18.737Z,68.20
2023-03-12T04:52:46.761Z,68.20
2023-03-12T04:55:14.771Z,68.30
2023-03-12T04:57:42.809Z,68.40
2023-03-12T05:00:13.373Z,68.40
2023-03-12T05:02:42.862Z,68.20
2023-03-12T05:05:11.954Z,68.20
2023-03-12T05:07:40.000Z,68.10
2023-03-12T05:10:09.269Z,68.20
2023-03-12T05:12:37.288Z,68.30
2023-03-12T05:15:05.840Z,68.20
2023-03-12T05:17:33.903Z,68.40
2023-03-12T05:20:04.200Z,68.50
2023-03-12T05:22:32.205Z,68.30
2023-03-12T05:25:00.218Z,68.20
2023-03-12T05:27:29.844Z,68.20
2023-03-12T05:29:58.896Z,68.30
2023-03-12T05:32:27.124Z,68.30
2023-03-12T05:34:55.188Z,68.30
2023-03-12T05:37:24.639Z,68.30
2023-03-12T05:39:54.217Z,68.40
2023-03-12T05:42:22.287Z,68.30
2023-03-12T05:44:51.422Z,68.30
2023-03-12T05:47:19.482Z,68.30
2023-03-12T05:49:47.790Z,68.30
2023-03-12T05:52:15.806Z,68.30
2023-03-12T05:54:45.205Z,68.30
2023-03-12T05:57:13.218Z,68.30
2023-03-12T05:59:41.279Z,68.30
2023-03-12T06:02:09.371Z,68.30
2023-03-12T06:04:37.904Z,68.30
2023-03-12T06:07:05.936Z,68.30
2023-03-12T06:09:34.055Z,68.30
2023-03-12T06:12:03.527Z,68.40
2023-03-12T06:14:31.583Z,68.40
2023-03-12T06:16:59.621Z,68.30
2023-03-12T06:19:27.737Z,68.40
2023-03-12T06:21:55.777Z,68.40
2023-03-12T06:24:23.821Z,68.30
2023-03-12T06:26:51.874Z,68.30
2023-03-12T06:29:21.293Z,68.30
2023-03-12T06:31:52.277Z,68.20
2023-03-12T06:34:20.434Z,68.20
2023-03-12T06:36:48.502Z,67.90
2023-03-12T06:39:16.545Z,67.90
2023-03-12T06:41:44.845Z,67.80
2023-03-12T06:44:12.911Z,67.10
2023-03-12T06:46:44.129Z,66.40
2023-03-12T06:49:12.244Z,65.60
2023-03-12T06:51:40.268Z,65.30
2023-03-12T06:54:08.345Z,64.70
2023-03-12T06:56:39.429Z,64.10
2023-03-12T06:59:07.541Z,63.90
2023-03-12T07:01:35.578Z,63.40
2023-03-12T07:04:05.004Z,63.70
2023-03-12T07:06:33.019Z,63.20
2023-03-12T07:09:01.062Z,62.90
2023-03-12T07:11:29.069Z,62.60
2023-03-12T07:13:57.373Z,62.70
2023-03-12T07:16:25.457Z,62.60
2023-03-12T07:18:56.820Z,62.50
2023-03-12T07:21:26.228Z,62.20
2023-03-12T07:23:54.399Z,62.30
2023-03-12T07:26:22.465Z,62.20
2023-03-12T07:28:50.527Z,62.20
2023-03-12T07:31:18.609Z,62.00
2023-03-12T07:33:46.772Z,61.80
2023-03-12T07:36:15.014Z,61.90
2023-03-12T07:38:44.526Z,61.80
2023-03-12T07:41:12.624Z,62.10
2023-03-12T07:43:44.940Z,61.90
2023-03-12T07:46:13.084Z,61.90
2023-03-12T07:48:44.111Z,61.80
2023-03-12T07:51:12.434Z,61.70
2023-03-12T07:53:40.462Z,61.70
2023-03-12T07:56:10.201Z,61.60
2023-03-12T07:58:39.264Z,62.00
2023-03-12T08:01:08.048Z,61.70
2023-03-12T08:03:36.633Z,61.90
2023-03-12T08:06:05.580Z,62.10
2023-03-12T08:08:33.727Z,62.10
2023-03-12T08:11:02.096Z,62.00
2023-03-12T08:13:31.581Z,62.10
2023-03-12T08:15:59.658Z,62.20
2023-03-12T08:18:32.857Z,62.10
2023-03-12T08:21:00.911Z,62.10
2023-03-12T08:23:28.925Z,62.20
2023-03-12T08:26:03.135Z,62.10
2023-03-12T08:28:32.597Z,62.10
2023-03-12T08:31:01.298Z,62.20
2023-03-12T08:33:29.331Z,62.00
2023-03-12T08:35:57.453Z,62.10
2023-03-12T08:38:25.517Z,62.10
2023-03-12T08:40:58.002Z,62.20
2023-03-12T08:43:28.518Z,62.20
2023-03-12T08:45:58.738Z,62.10
2023-03-12T08:48:26.909Z,62.30
2023-03-12T08:50:56.384Z,62.30
2023-03-12T08:53:25.592Z,62.40
2023-03-12T08:55:54.190Z,62.30
2023-03-12T08:58:22.266Z,62.40
2023-03-12T09:00:50.338Z,62.50
2023-03-12T09:03:21.602Z,62.50
2023-03-12T09:05:49.770Z,62.60
2023-03-12T09:08:17.870Z,63.80
2023-03-12T09:10:49.496Z,64.40
2023-03-12T09:13:17.586Z,65.30
2023-03-12T09:15:45.647Z,65.80
2023-03-12T09:18:13.991Z,66.30
2023-03-12T09:20:44.959Z,66.60
2023-03-12T09:23:13.051Z,67.00
2023-03-12T09:25:41.144Z,67.40
2023-03-12T09:28:09.754Z,67.80
2023-03-12T09:30:38.961Z,68.10
2023-03-12T09:33:07.108Z,68.30
2023-03-12T09:35:35.164Z,68.50
2023-03-12T09:38:04.594Z,68.70
2023-03-12T09:40:33.633Z,68.80
2023-03-12T09:43:03.073Z,69.20
2023-03-12T09:45:33.093Z,69.30
2023-03-12T09:48:04.406Z,69.50
2023-03-12T09:50:33.954Z,69.60
2023-03-12T09:53:04.503Z,69.80
2023-03-12T09:55:36.252Z,69.90
2023-03-12T09:58:04.302Z,70.00
2023-03-12T10:00:33.922Z,70.20
2023-03-12T10:03:10.489Z,70.30
2023-03-12T10:05:39.972Z,70.50
2023-03-12T10:08:23.912Z,70.60
2023-03-12T10:10:55.242Z,70.70
2023-03-12T10:13:30.605Z,70.90
2023-03-12T10:16:06.706Z,71.00
2023-03-12T10:18:41.873Z,71.10
2023-03-12T10:21:14.357Z,71.20
2023-03-12T10:23:50.147Z,71.20
2023-03-12T10:26:20.553Z,71.50
2023-03-12T10:28:50.414Z,71.50
2023-03-12T10:31:21.092Z,71.70
2023-03-12T10:33:53.735Z,71.70
2023-03-12T10:36:23.262Z,71.70
2023-03-12T10:38:52.651Z,71.80
2023-03-12T10:41:22.156Z,71.70
2023-03-12T10:43:50.172Z,71.80
2023-03-12T10:46:44.775Z,71.90
2023-03-12T10:49:29.956Z,72.00
2023-03-12T10:51:59.692Z,72.20
2023-03-12T10:54:31.595Z,72.20
2023-03-12T10:56:59.616Z,72.30
2023-03-12T10:59:29.952Z,72.30
2023-03-12T11:01:58.095Z,72.50
2023-03-12T11:04:29.959Z,72.50
2023-03-12T11:07:16.951Z,72.60
2023-03-12T11:09:46.342Z,72.60
2023-03-12T11:12:34.699Z,72.70
2023-03-12T11:15:28.880Z,72.80
2023-03-12T11:18:20.458Z,72.80
2023-03-12T11:20:48.623Z,72.90
2023-03-12T11:23:23.168Z,73.00
2023-03-12T11:26:00.214Z,73.10
2023-03-12T11:28:33.266Z,73.10
2023-03-12T11:31:01.408Z,73.20
2023-03-12T11:33:29.615Z,73.20
2023-03-12T11:36:09.908Z,73.30
2023-03-12T11:38:40.934Z,73.30
2023-03-12T11:41:24.992Z,73.40
2023-03-12T11:43:58.347Z,73.40
2023-03-12T11:46:37.444Z,73.60
2023-03-12T11:49:10.931Z,73.70
2023-03-12T11:51:43.091Z,73.80
2023-03-12T11:54:36.822Z,73.90
2023-03-12T11:57:07.865Z,73.90
2023-03-12T11:59:42.594Z,74.10
2023-03-12T12:02:21.873Z,74.10
2023-03-12T12:05:09.086Z,74.20
2023-03-12T12:07:44.187Z,74.10
2023-03-12T12:10:15.991Z,74.20
2023-03-12T12:12:50.674Z,74.30
2023-03-12T12:15:24.745Z,74.30
2023-03-12T12:17:58.444Z,74.40
2023-03-12T12:20:30.598Z,74.50
2023-03-12T12:23:03.371Z,74.60
2023-03-12T12:25:47.646Z,74.60
2023-03-12T12:28:57.665Z,74.60
2023-03-12T12:31:33.643Z,74.70
2023-03-12T12:34:19.855Z,74.90
2023-03-12T12:36:49.818Z,75.40
2023-03-12T12:39:21.395Z,75.40
2023-03-12T12:41:51.648Z,75.10
2023-03-12T12:44:22.655Z,74.80
2023-03-12T12:46:51.592Z,74.10
2023-03-12T12:49:20.959Z,73.70
2023-03-12T12:51:50.208Z,73.10
2023-03-12T12:54:21.941Z,72.60
2023-03-12T12:56:51.755Z,72.50
2023-03-12T12:59:28.536Z,72.80
2023-03-12T13:01:57.130Z,73.30
2023-03-12T13:04:28.024Z,73.60
2023-03-12T13:06:57.809Z,73.80
2023-03-12T13:09:37.123Z,74.20
2023-03-12T13:12:26.714Z,74.30
2023-03-12T13:14:56.772Z,74.60
2023-03-12T13:17:32.094Z,74.80
2023-03-12T13:20:02.473Z,75.00
2023-03-12T13:22:56.033Z,75.70
2023-03-12T13:25:40.907Z,76.20
2023-03-12T13:28:32.625Z,75.80
2023-03-12T13:31:02.531Z,75.00
2023-03-12T13:33:45.086Z,74.60
2023-03-12T13:36:26.761Z,74.20
2023-03-12T13:38:59.371Z,74.60
2023-03-12T13:41:35.543Z,74.80
2023-03-12T13:44:25.805Z,75.00
2023-03-12T13:47:00.408Z,75.20
2023-03-12T13:49:28.920Z,75.40
2023-03-12T13:52:01.973Z,75.60
2023-03-12T13:54:33.265Z,75.80
2023-03-12T13:57:03.234Z,75.90
2023-03-12T13:59:31.472Z,76.20
2023-03-12T14:02:04.999Z,77.00
2023-03-12T14:04:37.740Z,77.40
2023-03-12T14:07:38.610Z,77.00
2023-03-12T14:10:12.704Z,76.50
2023-03-12T14:12:44.553Z,75.60
2023-03-12T14:15:18.686Z,75.10
2023-03-12T14:17:48.080Z,75.20
2023-03-12T14:20:23.148Z,75.60
2023-03-12T14:22:52.256Z,75.80
2023-03-12T14:25:25.189Z,76.00
2023-03-12T14:27:53.210Z,76.20
2023-03-12T14:30:23.689Z,76.40
2023-03-12T14:32:54.821Z,76.60
2023-03-12T14:35:23.788Z,76.90
2023-03-12T14:37:55.279Z,77.00
2023-03-12T14:40:25.461Z,77.20
2023-03-12T14:42:53.486Z,77.40
2023-03-12T14:45:23.116Z,77.50
2023-03-12T14:47:56.115Z,78.40
2023-03-12T14:50:25.375Z,78.80
2023-03-12T14:52:53.408Z,78.30
2023-03-12T14:55:23.570Z,77.90
2023-03-12T14:58:03.308Z,76.90
2023-03-12T15:00:31.511Z,76.30
2023-03-12T15:03:01.302Z,76.50
2023-03-12T15:05:29.393Z,76.40
2023-03-12T15:08:03.812Z,76.70
2023-03-12T15:10:32.331Z,76.90
2023-03-12T15:13:01.350Z,77.00
2023-03-12T15:15:36.716Z,77.10
2023-03-12T15:18:14.505Z,77.40
2023-03-12T15:20:42.550Z,77.60
2023-03-12T15:23:10.988Z,77.90
2023-03-12T15:25:39.397Z,78.30
2023-03-12T15:28:09.186Z,78.30
2023-03-12T15:30:37.829Z,78.60
2023-03-12T15:33:07.913Z,78.70
2023-03-12T15:35:38.223Z,78.90
2023-03-12T15:38:06.462Z,79.00
2023-03-12T15:40:34.576Z,79.30
2023-03-12T15:43:03.616Z,79.40
2023-03-12T15:45:36.708Z,79.20
2023-03-12T15:48:05.773Z,79.40
2023-03-12T15:50:35.240Z,80.60
2023-03-12T15:53:06.522Z,80.80
2023-03-12T15:55:35.304Z,79.90
2023-03-12T15:58:03.374Z,79.20
2023-03-12T16:00:32.074Z,78.20
2023-03-12T16:03:00.652Z,78.20
2023-03-12T16:05:30.858Z,78.30
2023-03-12T16:07:58.884Z,78.40
2023-03-12T16:10:28.467Z,78.50
2023-03-12T16:13:02.824Z,78.70
2023-03-12T16:15:32.517Z,78.70
2023-03-12T16:18:03.305Z,78.90
2023-03-12T16:20:31.340Z,79.30
2023-03-12T16:22:59.389Z,79.60
2023-03-12T16:25:28.811Z,79.80
2023-03-12T16:27:58.177Z,80.00
2023-03-12T16:30:27.507Z,80.30
2023-03-12T16:32:55.995Z,80.40
2023-03-12T16:35:24.128Z,80.40
2023-03-12T16:37:52.472Z,80.30
2023-03-12T16:40:32.478Z,80.40
2023-03-12T16:43:03.954Z,80.70
2023-03-12T16:45:32.202Z,80.80
2023-03-12T16:48:01.553Z,80.90
2023-03-12T16:50:29.819Z,80.90
2023-03-12T16:52:58.026Z,81.90
2023-03-12T16:55:28.523Z,82.00
2023-03-12T16:57:57.871Z,81.50
2023-03-12T17:00:28.786Z,80.90
2023-03-12T17:02:59.101Z,79.70
2023-03-12T17:05:27.479Z,79.00
2023-03-12T17:07:55.557Z,79.10
2023-03-12T17:10:23.723Z,79.20
2023-03-12T17:12:51.818Z,79.30
2023-03-12T17:15:22.184Z,79.50
2023-03-12T17:17:51.590Z,79.60
2023-03-12T17:20:20.577Z,79.70
2023-03-12T17:22:49.120Z,80.00
2023-03-12T17:25:21.480Z,80.00
2023-03-12T17:27:49.560Z,80.10
2023-03-12T17:30:17.849Z,80.20
2023-03-12T17:32:46.009Z,80.40
2023-03-12T17:35:15.477Z,80.40
2023-03-12T17:37:43.513Z,80.70
2023-03-12T17:40:12.540Z,80.60
2023-03-12T17:42:40.544Z,80.70
2023-03-12T17:45:09.571Z,80.70
2023-03-12T17:47:37.629Z,81.50
2023-03-12T17:50:06.074Z,81.40
2023-03-12T17:52:35.691Z,81.10
2023-03-12T17:55:03.768Z,80.40
2023-03-12T17:57:31.806Z,79.50
2023-03-12T17:59:59.823Z,78.80
2023-03-12T18:02:27.881Z,78.80
2023-03-12T18:04:55.941Z,78.90
2023-03-12T18:07:24.090Z,79.10
2023-03-12T18:09:53.515Z,79.30
2023-03-12T18:12:21.754Z,79.50
2023-03-12T18:14:49.790Z,79.60
2023-03-12T18:17:17.875Z,79.80
2023-03-12T18:19:46.052Z,80.00
2023-03-12T18:22:14.763Z,80.00
2023-03-12T18:24:42.800Z,80.00
2023-03-12T18:27:12.226Z,80.10
2023-03-12T18:29:41.167Z,80.20
2023-03-12T18:32:09.245Z,80.40
2023-03-12T18:34:37.674Z,80.50
2023-03-12T18:37:05.717Z,80.50
2023-03-12T18:39:33.758Z,80.60
2023-03-12T18:42:01.796Z,80.80
2023-03-12T18:44:31.357Z,80.80
2023-03-12T18:46:59.515Z,80.80
2023-03-12T18:49:27.812Z,80.80
2023-03-12T18:51:56.164Z,80.90
2023-03-12T18:54:24.875Z,80.90
2023-03-12T18:56:53.096Z,80.90
2023-03-12T18:59:21.478Z,81.00
2023-03-12T19:01:51.011Z,81.00
2023-03-12T19:04:20.030Z,81.10
2023-03-12T19:06:52.022Z,81.10
2023-03-12T19:09:20.212Z,81.10
2023-03-12T19:11:51.406Z,81.10
2023-03-12T19:14:21.412Z,81.10
2023-03-12T19:16:50.795Z,81.20
2023-03-12T19:19:18.887Z,81.20
2023-03-12T19:21:47.370Z,81.20
2023-03-12T19:24:15.600Z,81.20
2023-03-12T19:26:43.667Z,81.20
2023-03-12T19:29:11.737Z,81.40
2023-03-12T19:31:39.845Z,81.30
2023-03-12T19:34:09.266Z,81.30
2023-03-12T19:36:37.309Z,81.30
2023-03-12T19:39:15.235Z,81.30
2023-03-12T19:41:48.410Z,81.40
2023-03-12T19:44:16.448Z,81.50
2023-03-12T19:46:44.468Z,81.30
2023-03-12T19:49:13.897Z,81.40
2023-03-12T19:51:41.908Z,81.40
2023-03-12T19:54:09.948Z,81.40
2023-03-12T19:56:38.045Z,81.50
2023-03-12T19:59:06.111Z,81.50
2023-03-12T20:01:34.211Z,81.50
2023-03-12T20:04:04.640Z,81.50
2023-03-12T20:06:34.040Z,81.50
2023-03-12T20:09:02.102Z,81.50
2023-03-12T20:11:30.136Z,81.60
2023-03-12T20:13:58.513Z,81.60
2023-03-12T20:16:26.667Z,81.50
2023-03-12T20:18:54.748Z,81.50
2023-03-12T20:21:22.805Z,81.60
2023-03-12T20:23:52.186Z,81.60
2023-03-12T20:26:20.221Z,81.60
2023-03-12T20:28:48.230Z,81.70
2023-03-12T20:31:16.945Z,81.60
2023-03-12T20:33:44.914Z,81.60
2023-03-12T20:36:13.645Z,81.60
2023-03-12T20:38:41.716Z,81.70
2023-03-12T20:41:14.101Z,81.60
2023-03-12T20:43:42.229Z,81.60
2023-03-12T20:46:10.442Z,81.60
2023-03-12T20:48:38.547Z,81.60
2023-03-12T20:51:07.023Z,81.70
2023-03-12T20:53:35.048Z,81.60
2023-03-12T20:56:05.335Z,81.80
2023-03-12T20:58:35.975Z,81.80
2023-03-12T21:01:04.374Z,81.80
2023-03-12T21:03:32.415Z,81.80
2023-03-12T21:06:01.107Z,81.80
2023-03-12T21:08:29.319Z,81.80
2023-03-12T21:10:57.368Z,81.90
2023-03-12T21:13:26.476Z,81.90
2023-03-12T21:15:55.877Z,81.80
2023-03-12T21:18:24.948Z,81.90
2023-03-12T21:20:53.130Z,81.90
2023-03-12T21:23:21.209Z,81.90
2023-03-12T21:25:49.258Z,82.00
2023-03-12T21:28:18.232Z,81.90
2023-03-12T21:30:46.375Z,82.00
2023-03-12T21:33:16.900Z,82.00
2023-03-12T21:35:45.151Z,82.00
2023-03-12T21:38:13.208Z,82.10
2023-03-12T21:40:41.218Z,82.10
2023-03-12T21:43:09.242Z,82.10
2023-03-12T21:45:37.273Z,82.00
2023-03-12T21:48:05.648Z,82.10
2023-03-12T21:50:35.056Z,82.00
2023-03-12T21:53:11.666Z,82.20
2023-03-12T21:55:57.201Z,82.10
2023-03-12T21:58:25.284Z,82.10
2023-03-12T22:00:53.319Z,82.10
2023-03-12T22:03:21.310Z,82.10
2023-03-12T22:05:53.920Z,82.10
2023-03-12T22:08:22.041Z,82.10
2023-03-12T22:10:50.210Z,82.10
2023-03-12T22:13:18.378Z,82.20
2023-03-12T22:15:48.098Z,82.10
2023-03-12T22:18:16.215Z,82.10
2023-03-12T22:20:44.272Z,82.10
2023-03-12T22:23:13.649Z,82.20
2023-03-12T22:25:41.728Z,82.10
2023-03-12T22:28:15.676Z,82.20
2023-03-12T22:30:43.809Z,82.10
2023-03-12T22:33:11.886Z,82.20
2023-03-12T22:35:44.976Z,82.20
2023-03-12T22:38:14.561Z,82.20
2023-03-12T22:40:42.752Z,82.20
2023-03-12T22:43:10.797Z,82.20
2023-03-12T22:45:38.848Z,82.20
2023-03-12T22:48:07.668Z,82.10
2023-03-12T22:50:35.724Z,82.10
2023-03-12T22:53:03.736Z,82.20
2023-03-12T22:55:33.974Z,82.20
2023-03-12T22:58:01.980Z,82.20
2023-03-12T23:00:30.108Z,82.20
2023-03-12T23:02:58.306Z,82.20
2023-03-12T23:05:26.349Z,82.20
2023-03-12T23:07:54.450Z,82.10
2023-03-12T23:10:22.513Z,82.20
2023-03-12T23:12:51.933Z,82.30
2023-03-12T23:15:22.625Z,82.30
2023-03-12T23:17:50.805Z,82.20
2023-03-12T23:20:19.058Z,82.30
2023-03-12T23:22:47.093Z,82.20
2023-03-12T23:25:15.131Z,82.20
2023-03-12T23:27:45.603Z,82.20
2023-03-12T23:30:16.206Z,82.20
2023-03-12T23:32:44.297Z,82.20
2023-03-12T23:35:12.420Z,82.30
2023-03-12T23:37:40.618Z,82.20
2023-03-12T23:40:11.142Z,82.30
2023-03-12T23:42:39.185Z,82.20
2023-03-12T23:45:08.555Z,82.20
2023-03-12T23:47:38.024Z,82.20
2023-03-12T23:50:06.632Z,82.30
2023-03-12T23:52:34.661Z,82.30
2023-03-12T23:55:02.707Z,82.30
2023-03-12T23:57:30.904Z,82.30
2023-03-12T23:59:58.913Z,82.30
